George Town, Malaysia
Current Conditions -  °F | °C
As of 8:00 PM on Thursday 29 Jan 2015 (Local Time) from WMKB Reporting Station
Broken Clouds Broken Clouds  
Wind Chill: 86°   Ceiling: 28000
Heat Index: 93°   Visibility: 4mi
Dew Point: 73°   Wind: 7mph
Humidity: 66%   Direction: 170°S
Pressure: 29.8"   Gusts: NA
Location:  5.42°N, 100.33°E
Report Text: WMKB 291200Z 17006KT 140V230 7000 FEW024 SCT140 BKN280 30/23 Q1009 NOSIG
Loading
Personal Weather Stations






























Interactive Weather Map New forecast layout! Learn more

10-Day Weather Forecast

Advertisements
Track Severe Weather on mobile